createdAt,value
2022-08-09T00:00:12.200Z,48.71
2022-08-09T00:02:47.370Z,48.96
2022-08-09T00:06:15.933Z,48.96
2022-08-09T00:08:11.109Z,49.22
2022-08-09T00:10:40.674Z,49.46
2022-08-09T00:13:17.488Z,49.33
2022-08-09T00:15:59.468Z,49.30
2022-08-09T00:18:35.694Z,49.46
2022-08-09T00:21:07.885Z,49.14
2022-08-09T00:23:56.330Z,49.60
2022-08-09T00:26:30.157Z,49.76
2022-08-09T00:29:12.160Z,49.78
2022-08-09T00:31:58.495Z,49.88
2022-08-09T00:34:32.602Z,49.99
2022-08-09T00:37:02.122Z,49.86
2022-08-09T00:40:08.937Z,49.93
2022-08-09T00:44:10.712Z,49.93
2022-08-09T00:45:15.690Z,50.10
2022-08-09T00:47:45.359Z,50.28
2022-08-09T00:50:16.052Z,50.23
2022-08-09T00:52:44.719Z,50.16
2022-08-09T00:55:32.802Z,50.30
2022-08-09T00:58:03.289Z,50.73
2022-08-09T01:00:35.366Z,50.80
2022-08-09T01:03:15.487Z,50.60
2022-08-09T01:05:54.789Z,50.59
2022-08-09T01:08:30.655Z,50.76
2022-08-09T01:11:09.560Z,51.04
2022-08-09T01:13:58.779Z,50.96
2022-08-09T01:16:36.001Z,50.65
2022-08-09T01:19:16.941Z,50.70
2022-08-09T01:22:16.458Z,50.53
2022-08-09T01:24:55.677Z,50.67
2022-08-09T01:27:29.374Z,50.87
2022-08-09T01:30:01.617Z,51.00
2022-08-09T01:32:35.952Z,50.94
2022-08-09T01:35:29.022Z,51.11
2022-08-09T01:38:10.190Z,51.17
2022-08-09T01:40:43.626Z,51.07
2022-08-09T01:43:14.592Z,50.90
2022-08-09T01:45:47.795Z,51.20
2022-08-09T01:48:29.848Z,51.08
2022-08-09T01:51:02.597Z,50.91
2022-08-09T01:53:41.673Z,50.87
2022-08-09T01:56:12.319Z,51.16
2022-08-09T01:58:49.152Z,51.17
2022-08-09T02:01:19.946Z,51.14
2022-08-09T02:03:51.583Z,51.24
2022-08-09T02:06:45.404Z,51.26
2022-08-09T02:09:25.173Z,51.53
2022-08-09T02:11:55.037Z,51.51
2022-08-09T02:14:30.211Z,51.66
2022-08-09T02:17:29.425Z,51.51
2022-08-09T02:19:49.310Z,51.55
2022-08-09T02:22:34.869Z,51.41
2022-08-09T02:25:09.775Z,51.48
2022-08-09T02:28:00.652Z,51.55
2022-08-09T02:30:39.097Z,51.74
2022-08-09T02:33:14.402Z,51.88
2022-08-09T02:36:02.926Z,51.90
2022-08-09T02:38:35.595Z,52.03
2022-08-09T02:41:09.762Z,52.01
2022-08-09T02:43:53.772Z,52.13
2022-08-09T02:46:28.784Z,52.50
2022-08-09T02:49:02.778Z,52.17
2022-08-09T02:51:40.069Z,52.37
2022-08-09T02:54:13.934Z,52.40
2022-08-09T02:56:51.316Z,52.34
2022-08-09T02:59:36.444Z,52.45
2022-08-09T03:02:11.992Z,52.64
2022-08-09T03:04:50.834Z,52.88
2022-08-09T03:07:21.250Z,52.88
2022-08-09T03:09:54.059Z,52.95
2022-08-09T03:12:27.455Z,52.96
2022-08-09T03:14:58.061Z,53.20
2022-08-09T03:17:29.650Z,52.98
2022-08-09T03:20:05.133Z,53.22
2022-08-09T03:22:44.910Z,53.30
2022-08-09T03:25:56.592Z,53.33
2022-08-09T03:28:11.318Z,53.31
2022-08-09T03:30:43.512Z,53.25
2022-08-09T03:33:18.921Z,53.21
2022-08-09T03:36:13.003Z,53.41
2022-08-09T03:38:43.569Z,53.52
2022-08-09T03:41:16.322Z,53.63
2022-08-09T03:44:03.306Z,54.03
2022-08-09T03:46:37.114Z,53.69
2022-08-09T03:49:09.590Z,53.93
2022-08-09T03:51:58.775Z,53.81
2022-08-09T03:54:32.805Z,53.93
2022-08-09T03:57:18.099Z,53.91
2022-08-09T03:59:54.312Z,54.00
2022-08-09T04:02:28.563Z,54.09
2022-08-09T04:05:05.854Z,54.29
2022-08-09T04:07:52.424Z,54.19
2022-08-09T04:10:29.296Z,54.36
2022-08-09T04:13:04.138Z,54.19
2022-08-09T04:16:18.265Z,54.26
2022-08-09T04:18:25.148Z,54.31
2022-08-09T04:20:55.915Z,54.40
2022-08-09T04:23:25.810Z,54.38
2022-08-09T04:25:55.451Z,54.42
2022-08-09T04:28:34.164Z,54.26
2022-08-09T04:31:07.971Z,54.46
2022-08-09T04:33:51.869Z,54.62
2022-08-09T04:36:27.883Z,54.58
2022-08-09T04:38:59.100Z,54.60
2022-08-09T04:41:33.058Z,54.36
2022-08-09T04:44:07.252Z,54.55
2022-08-09T04:46:58.219Z,54.52
2022-08-09T04:49:52.755Z,54.55
2022-08-09T04:52:26.438Z,54.68
2022-08-09T04:54:56.211Z,54.71
2022-08-09T04:57:25.405Z,54.63
2022-08-09T04:59:56.091Z,54.57
2022-08-09T05:02:27.238Z,54.60
2022-08-09T05:04:57.089Z,54.57
2022-08-09T05:07:31.722Z,54.49
2022-08-09T05:10:02.396Z,54.52
2022-08-09T05:12:33.050Z,54.37
2022-08-09T05:15:11.589Z,54.37
2022-08-09T05:18:50.510Z,54.27
2022-08-09T05:20:30.880Z,54.34
2022-08-09T05:23:55.415Z,54.44
2022-08-09T05:25:50.733Z,54.52
2022-08-09T05:28:20.979Z,54.55
2022-08-09T05:30:51.550Z,54.61
2022-08-09T05:33:26.345Z,54.61
2022-08-09T05:36:04.279Z,54.63
2022-08-09T05:38:39.116Z,54.47
2022-08-09T05:41:12.645Z,54.37
2022-08-09T05:43:45.309Z,54.44
2022-08-09T05:46:18.610Z,54.54
2022-08-09T05:48:48.586Z,54.42
2022-08-09T05:51:43.225Z,54.33
2022-08-09T05:54:17.916Z,54.46
2022-08-09T05:56:55.191Z,54.50
2022-08-09T05:59:25.571Z,54.60
2022-08-09T06:01:58.971Z,54.18
2022-08-09T06:04:34.818Z,53.96
2022-08-09T06:07:04.180Z,53.46
2022-08-09T06:09:54.521Z,52.89
2022-08-09T06:12:22.981Z,52.44
2022-08-09T06:14:55.277Z,51.81
2022-08-09T06:17:39.778Z,51.38
2022-08-09T06:20:10.650Z,50.53
2022-08-09T06:22:40.397Z,50.29
2022-08-09T06:25:16.268Z,50.11
2022-08-09T06:27:51.867Z,49.59
2022-08-09T06:30:20.931Z,49.14
2022-08-09T06:33:13.539Z,49.13
2022-08-09T06:35:56.954Z,48.75
2022-08-09T06:38:32.309Z,48.38
2022-08-09T06:41:12.455Z,48.11
2022-08-09T06:43:47.912Z,48.35
2022-08-09T06:46:39.233Z,48.06
2022-08-09T06:49:05.847Z,47.89
2022-08-09T06:51:39.100Z,47.71
2022-08-09T06:54:11.820Z,47.24
2022-08-09T06:56:46.252Z,47.00
2022-08-09T07:00:50.575Z,47.09
2022-08-09T07:02:05.129Z,47.07
2022-08-09T07:04:34.434Z,46.45
2022-08-09T07:07:04.699Z,46.69
2022-08-09T07:09:57.106Z,46.59
2022-08-09T07:12:38.509Z,46.68
2022-08-09T07:15:54.014Z,46.10
2022-08-09T07:18:02.296Z,46.43
2022-08-09T07:20:32.001Z,46.05
2022-08-09T07:23:00.651Z,45.89
2022-08-09T07:25:30.615Z,46.27
2022-08-09T07:28:09.523Z,45.67
2022-08-09T07:30:37.996Z,45.60
2022-08-09T07:33:10.281Z,45.96
2022-08-09T07:35:54.387Z,45.81
2022-08-09T07:38:24.166Z,45.47
2022-08-09T07:41:12.981Z,45.28
2022-08-09T07:43:50.160Z,45.51
2022-08-09T07:46:27.862Z,45.46
2022-08-09T07:48:59.396Z,45.10
2022-08-09T07:52:05.749Z,45.46
2022-08-09T07:54:19.155Z,45.12
2022-08-09T07:56:56.884Z,44.78
2022-08-09T07:59:34.773Z,44.81
2022-08-09T08:02:19.467Z,45.15
2022-08-09T08:04:49.443Z,45.19
2022-08-09T08:08:44.013Z,44.78
2022-08-09T08:10:12.283Z,44.82
2022-08-09T08:12:45.540Z,44.87
2022-08-09T08:15:24.338Z,44.87
2022-08-09T08:17:58.231Z,44.79
2022-08-09T08:20:33.173Z,44.92
2022-08-09T08:23:16.838Z,44.56
2022-08-09T08:25:48.513Z,44.60
2022-08-09T08:28:26.210Z,44.38
2022-08-09T08:31:13.904Z,43.79
2022-08-09T08:33:53.016Z,43.66
2022-08-09T08:36:29.512Z,43.83
2022-08-09T08:39:00.483Z,43.01
2022-08-09T08:41:50.398Z,42.92
2022-08-09T08:44:23.043Z,42.65
2022-08-09T08:47:02.580Z,42.49
2022-08-09T08:49:38.949Z,42.48
2022-08-09T08:52:57.491Z,42.19
2022-08-09T08:55:13.638Z,41.34
2022-08-09T08:57:56.490Z,41.06
2022-08-09T09:00:27.648Z,40.45
2022-08-09T09:03:11.408Z,40.33
2022-08-09T09:06:00.787Z,39.92
2022-08-09T09:08:38.067Z,39.08
2022-08-09T09:11:17.631Z,38.78
2022-08-09T09:13:56.370Z,38.54
2022-08-09T09:16:31.880Z,38.51
2022-08-09T09:22:04.108Z,37.06
2022-08-09T09:24:37.868Z,37.01
2022-08-09T09:27:09.140Z,37.22
2022-08-09T09:30:10.678Z,36.84
2022-08-09T09:32:40.122Z,36.27
2022-08-09T09:35:12.925Z,35.84
2022-08-09T09:37:46.948Z,35.24
2022-08-09T09:40:17.748Z,35.10
2022-08-09T09:42:56.626Z,34.83
2022-08-09T09:45:29.295Z,34.27
2022-08-09T09:48:05.059Z,33.84
2022-08-09T09:50:50.704Z,33.86
2022-08-09T09:53:21.563Z,33.54
2022-08-09T09:56:05.403Z,33.62
2022-08-09T09:58:48.255Z,33.23
2022-08-09T10:01:31.352Z,32.79
2022-08-09T10:04:13.852Z,32.21
2022-08-09T10:06:52.063Z,32.34
2022-08-09T10:09:24.242Z,32.27
2022-08-09T10:12:14.887Z,31.74
2022-08-09T10:14:51.316Z,31.41
2022-08-09T10:17:39.701Z,30.71
2022-08-09T10:20:32.948Z,30.05
2022-08-09T10:23:20.390Z,30.28
2022-08-09T10:26:07.185Z,29.80
2022-08-09T10:28:41.702Z,29.31
2022-08-09T10:34:09.868Z,29.08
2022-08-09T10:36:50.167Z,29.37
2022-08-09T10:39:20.970Z,28.59
2022-08-09T10:41:49.556Z,28.33
2022-08-09T10:44:21.891Z,28.35
2022-08-09T10:48:17.473Z,28.16
2022-08-09T10:50:30.761Z,27.50
2022-08-09T10:53:10.105Z,27.83
2022-08-09T10:55:58.306Z,27.43
2022-08-09T10:58:33.707Z,27.12
2022-08-09T11:03:06.530Z,26.91
2022-08-09T11:04:19.715Z,26.99
2022-08-09T11:07:57.145Z,27.33
2022-08-09T11:10:38.378Z,26.71
2022-08-09T11:13:49.084Z,26.14
2022-08-09T11:16:35.557Z,25.77
2022-08-09T11:19:09.423Z,25.94
2022-08-09T11:22:10.504Z,25.94
2022-08-09T11:25:08.125Z,26.47
2022-08-09T11:28:05.432Z,25.87
2022-08-09T11:30:37.914Z,25.79
2022-08-09T11:33:12.878Z,25.56
2022-08-09T11:35:50.031Z,25.07
2022-08-09T11:38:32.002Z,24.99
2022-08-09T11:41:05.656Z,24.53
2022-08-09T11:43:43.548Z,24.60
2022-08-09T11:46:13.353Z,24.89
2022-08-09T11:48:57.703Z,24.17
2022-08-09T11:53:02.418Z,24.61
2022-08-09T11:54:28.542Z,24.28
2022-08-09T11:58:00.631Z,24.12
2022-08-09T12:00:31.705Z,23.99
2022-08-09T12:03:32.075Z,23.47
2022-08-09T12:05:53.681Z,23.65
2022-08-09T12:08:24.914Z,23.33
2022-08-09T12:10:56.314Z,23.84
2022-08-09T12:14:10.258Z,23.87
2022-08-09T12:16:37.279Z,23.59
2022-08-09T12:19:09.996Z,23.50
2022-08-09T12:21:48.585Z,23.14
2022-08-09T12:24:25.646Z,22.51
2022-08-09T12:28:59.578Z,22.46
2022-08-09T12:30:01.629Z,21.96
2022-08-09T12:32:45.469Z,21.75
2022-08-09T12:35:19.386Z,21.83
2022-08-09T12:37:52.323Z,21.96
2022-08-09T12:40:24.871Z,21.85
2022-08-09T12:42:54.449Z,22.34
2022-08-09T12:45:32.206Z,22.92
2022-08-09T12:48:04.256Z,22.76
2022-08-09T12:50:36.142Z,22.25
2022-08-09T12:53:08.791Z,22.26
2022-08-09T12:56:14.284Z,22.12
2022-08-09T12:58:34.551Z,22.20
2022-08-09T13:01:23.157Z,22.07
2022-08-09T13:04:01.771Z,21.96
2022-08-09T13:06:35.569Z,21.84
2022-08-09T13:09:09.867Z,21.51
2022-08-09T13:11:42.523Z,21.25
2022-08-09T13:14:40.697Z,20.84
2022-08-09T13:17:05.245Z,20.95
2022-08-09T13:20:08.775Z,20.87
2022-08-09T13:22:36.418Z,20.71
2022-08-09T13:25:12.186Z,21.11
2022-08-09T13:27:54.351Z,21.17
2022-08-09T13:31:11.559Z,21.35
2022-08-09T13:33:23.643Z,21.00
2022-08-09T13:36:41.465Z,20.98
2022-08-09T13:38:57.854Z,21.49
2022-08-09T13:41:52.125Z,21.49
2022-08-09T13:44:17.517Z,21.39
2022-08-09T13:47:25.551Z,21.31
2022-08-09T13:49:55.768Z,21.65
2022-08-09T13:52:26.060Z,21.68
2022-08-09T13:55:00.667Z,21.37
2022-08-09T13:57:39.878Z,21.97
2022-08-09T14:00:15.576Z,21.99
2022-08-09T14:03:03.810Z,22.15
2022-08-09T14:06:00.291Z,22.23
2022-08-09T14:08:26.883Z,22.07
2022-08-09T14:10:59.633Z,22.05
2022-08-09T14:14:23.471Z,22.07
2022-08-09T14:16:28.027Z,21.82
2022-08-09T14:18:58.438Z,21.68
2022-08-09T14:21:29.298Z,21.43
2022-08-09T14:24:01.305Z,21.37
2022-08-09T14:26:41.033Z,21.82
2022-08-09T14:30:04.089Z,21.89
2022-08-09T14:32:06.104Z,21.91
2022-08-09T14:34:40.864Z,22.14
2022-08-09T14:37:10.664Z,22.08
2022-08-09T14:39:46.363Z,22.08
2022-08-09T14:42:38.968Z,21.97
2022-08-09T14:46:39.557Z,22.12
2022-08-09T14:48:02.102Z,22.02
2022-08-09T14:50:32.868Z,22.03
2022-08-09T14:53:01.927Z,22.34
2022-08-09T14:55:32.709Z,22.04
2022-08-09T14:58:05.661Z,22.20
2022-08-09T15:00:36.943Z,21.98
2022-08-09T15:03:07.856Z,22.30
2022-08-09T15:05:38.931Z,22.30
2022-08-09T15:08:10.186Z,22.59
2022-08-09T15:10:41.156Z,22.56
2022-08-09T15:13:12.895Z,22.61
2022-08-09T15:15:43.716Z,22.42
2022-08-09T15:18:14.519Z,22.24
2022-08-09T15:21:57.167Z,21.94
2022-08-09T15:24:09.367Z,21.80
2022-08-09T15:26:30.779Z,22.35
2022-08-09T15:29:05.061Z,22.40
2022-08-09T15:31:40.779Z,22.21
2022-08-09T15:34:33.114Z,22.30
2022-08-09T15:37:04.287Z,21.92
2022-08-09T15:39:44.006Z,22.03
2022-08-09T15:42:22.925Z,21.71
2022-08-09T15:44:53.136Z,22.31
2022-08-09T15:47:31.939Z,21.90
2022-08-09T15:50:15.091Z,21.93
2022-08-09T15:52:54.974Z,21.98
2022-08-09T15:55:34.480Z,22.08
2022-08-09T15:58:27.228Z,22.17
2022-08-09T16:00:58.002Z,22.15
2022-08-09T16:03:38.258Z,22.18
2022-08-09T16:06:27.319Z,22.03
2022-08-09T16:09:01.036Z,22.09
2022-08-09T16:11:33.039Z,22.27
2022-08-09T16:14:06.986Z,22.30
2022-08-09T16:16:42.060Z,22.44
2022-08-09T16:19:18.072Z,22.11
2022-08-09T16:21:51.976Z,21.90
2022-08-09T16:24:33.797Z,22.04
2022-08-09T16:27:04.866Z,22.57
2022-08-09T16:29:38.032Z,22.69
2022-08-09T16:32:35.134Z,22.61
2022-08-09T16:35:04.628Z,22.86
2022-08-09T16:37:53.351Z,22.90
2022-08-09T16:40:40.083Z,22.86
2022-08-09T16:43:10.433Z,23.01
2022-08-09T16:45:41.673Z,23.15
2022-08-09T16:48:40.588Z,23.38
2022-08-09T16:51:07.356Z,23.23
2022-08-09T16:54:09.022Z,23.13
2022-08-09T16:56:32.557Z,23.73
2022-08-09T16:59:06.552Z,23.64
2022-08-09T17:01:39.594Z,23.70
2022-08-09T17:04:25.522Z,23.95
2022-08-09T17:08:41.584Z,23.77
2022-08-09T17:09:47.750Z,23.89
2022-08-09T17:12:17.441Z,24.54
2022-08-09T17:14:47.757Z,24.10
2022-08-09T17:17:27.065Z,24.60
2022-08-09T17:20:28.363Z,24.29
2022-08-09T17:22:52.276Z,24.38
2022-08-09T17:25:23.489Z,24.74
2022-08-09T17:27:55.099Z,25.15
2022-08-09T17:30:25.768Z,24.94
2022-08-09T17:33:01.013Z,25.00
2022-08-09T17:35:41.335Z,25.21
2022-08-09T17:38:32.349Z,25.22
2022-08-09T17:41:02.209Z,25.53
2022-08-09T17:43:37.044Z,26.17
2022-08-09T17:46:09.078Z,26.04
2022-08-09T17:48:52.277Z,26.17
2022-08-09T17:51:23.398Z,26.42
2022-08-09T17:53:55.918Z,26.76
2022-08-09T17:56:28.846Z,26.99
2022-08-09T17:59:08.869Z,27.31
2022-08-09T18:02:03.572Z,27.20
2022-08-09T18:04:27.286Z,27.86
2022-08-09T18:06:57.309Z,28.05
2022-08-09T18:09:40.918Z,28.06
2022-08-09T18:12:17.424Z,28.46
2022-08-09T18:14:55.171Z,28.38
2022-08-09T18:18:02.405Z,28.58
2022-08-09T18:20:57.357Z,28.72
2022-08-09T18:23:07.133Z,28.66
2022-08-09T18:25:52.811Z,29.27
2022-08-09T18:30:39.326Z,29.19
2022-08-09T18:31:12.841Z,29.54
2022-08-09T18:33:42.493Z,29.66
2022-08-09T18:36:25.633Z,29.78
2022-08-09T18:39:03.338Z,29.83
2022-08-09T18:41:35.113Z,30.27
2022-08-09T18:44:12.421Z,30.21
2022-08-09T18:46:47.970Z,30.68
2022-08-09T18:49:21.131Z,30.65
2022-08-09T18:51:57.766Z,30.80
2022-08-09T18:54:29.620Z,30.80
2022-08-09T18:57:06.141Z,31.20
2022-08-09T18:59:48.837Z,31.24
2022-08-09T19:02:19.139Z,31.46
2022-08-09T19:05:04.257Z,31.40
2022-08-09T19:07:37.384Z,31.81
2022-08-09T19:10:15.528Z,31.62
2022-08-09T19:12:50.922Z,32.06
2022-08-09T19:15:28.155Z,32.08
2022-08-09T19:17:58.609Z,31.99
2022-08-09T19:20:33.821Z,32.51
2022-08-09T19:23:05.373Z,32.54
2022-08-09T19:26:00.805Z,32.66
2022-08-09T19:28:28.852Z,32.64
2022-08-09T19:30:57.420Z,32.67
2022-08-09T19:33:26.459Z,32.98
2022-08-09T19:35:57.371Z,33.05
2022-08-09T19:38:27.459Z,33.06
2022-08-09T19:40:59.924Z,33.10
2022-08-09T19:44:00.302Z,33.13
2022-08-09T19:46:34.972Z,33.23
2022-08-09T19:50:07.863Z,33.13
2022-08-09T19:51:57.313Z,33.24
2022-08-09T19:54:26.506Z,33.25
2022-08-09T19:56:58.370Z,33.43
2022-08-09T19:59:57.726Z,33.47
2022-08-09T20:04:09.629Z,33.55
2022-08-09T20:05:10.282Z,33.69
2022-08-09T20:07:56.722Z,33.71
2022-08-09T20:10:34.707Z,33.83
2022-08-09T20:13:08.217Z,33.89
2022-08-09T20:16:35.605Z,33.90
2022-08-09T20:18:27.825Z,34.27
2022-08-09T20:20:57.853Z,34.51
2022-08-09T20:23:39.225Z,34.72
2022-08-09T20:26:12.957Z,34.63
2022-08-09T20:28:49.774Z,34.69
2022-08-09T20:31:18.773Z,34.69
2022-08-09T20:33:52.332Z,34.96
2022-08-09T20:36:28.262Z,35.08
2022-08-09T20:39:28.696Z,35.25
2022-08-09T20:41:48.871Z,35.52
2022-08-09T20:44:26.556Z,35.49
2022-08-09T20:46:57.924Z,35.52
2022-08-09T20:49:28.638Z,35.71
2022-08-09T20:51:57.686Z,35.72
2022-08-09T20:54:29.828Z,35.63
2022-08-09T20:56:59.016Z,35.57
2022-08-09T21:00:20.670Z,35.63
2022-08-09T21:02:19.304Z,35.74
2022-08-09T21:05:53.118Z,35.83
2022-08-09T21:07:40.424Z,35.75
2022-08-09T21:10:12.305Z,35.65
2022-08-09T21:15:34.899Z,36.13
2022-08-09T21:18:11.623Z,36.36
2022-08-09T21:20:54.228Z,36.34
2022-08-09T21:23:26.590Z,36.20
2022-08-09T21:26:12.801Z,36.39
2022-08-09T21:28:55.733Z,36.54
2022-08-09T21:31:49.138Z,36.42
2022-08-09T21:34:28.691Z,36.34
2022-08-09T21:36:59.047Z,36.55
2022-08-09T21:39:28.275Z,36.41
2022-08-09T21:42:12.179Z,36.54
2022-08-09T21:44:42.575Z,36.68
2022-08-09T21:47:18.179Z,36.87
2022-08-09T21:49:48.035Z,36.75
2022-08-09T21:52:20.600Z,36.81
2022-08-09T21:54:59.562Z,37.01
2022-08-09T21:57:38.712Z,36.99
2022-08-09T22:00:31.930Z,36.98
2022-08-09T22:03:06.478Z,37.05
2022-08-09T22:05:37.416Z,37.38
2022-08-09T22:08:13.843Z,37.37
2022-08-09T22:11:50.136Z,37.16
2022-08-09T22:13:37.532Z,37.49
2022-08-09T22:16:09.386Z,37.56
2022-08-09T22:18:54.456Z,37.70
2022-08-09T22:21:44.666Z,37.94
2022-08-09T22:24:17.328Z,37.83
2022-08-09T22:26:51.524Z,37.82
2022-08-09T22:29:26.835Z,38.07
2022-08-09T22:32:02.048Z,38.12
2022-08-09T22:34:32.310Z,38.13
2022-08-09T22:37:01.677Z,38.52
2022-08-09T22:39:57.816Z,38.47
2022-08-09T22:42:22.324Z,38.61
2022-08-09T22:48:06.244Z,38.69
2022-08-09T22:48:11.731Z,38.77
2022-08-09T22:50:33.092Z,38.96
2022-08-09T22:53:03.553Z,38.97
2022-08-09T22:56:06.689Z,38.94
2022-08-09T22:58:32.340Z,39.06
2022-08-09T23:01:03.973Z,39.24
2022-08-09T23:04:04.046Z,39.20
2022-08-09T23:06:30.022Z,39.23
2022-08-09T23:09:07.451Z,39.14
2022-08-09T23:11:36.487Z,39.06
2022-08-09T23:14:09.911Z,39.44
2022-08-09T23:16:46.550Z,39.52
2022-08-09T23:19:15.447Z,39.50
2022-08-09T23:21:45.192Z,39.67
2022-08-09T23:24:14.437Z,39.41
2022-08-09T23:26:43.541Z,39.71
2022-08-09T23:29:13.758Z,39.73
2022-08-09T23:31:42.998Z,39.70
2022-08-09T23:34:11.443Z,39.96
2022-08-09T23:36:40.591Z,39.89
2022-08-09T23:39:10.355Z,39.87
2022-08-09T23:41:38.877Z,39.65
2022-08-09T23:44:07.640Z,39.72
2022-08-09T23:46:36.099Z,39.86
2022-08-09T23:49:05.868Z,39.98
2022-08-09T23:51:34.373Z,40.41
2022-08-09T23:54:03.726Z,40.36
2022-08-09T23:56:52.422Z,40.68
2022-08-09T23:59:25.867Z,41.10
